Time;durP1;ratioP1;P1;durP2;ratioP2;P2;SDS_P1;SDS_P2;PMS_P1;PMS_P2;Temp;Humidity;BMP_temperature;BMP_pressure;BME280_temperature;BME280_humidity;BME280_pressure;Samples;Min_cycle;Max_cycle;Signal;HPM_P1;HPM_P2
2022/06/17 00:01:11;;;;;;;4.00;2.90;;;23.50;85.50;;;;;;5033107;28;20208;-39
2022/06/17 00:03:44;;;;;;;7.45;3.35;;;23.50;85.70;;;;;;5028786;28;20202;-39
2022/06/17 00:06:12;;;;;;;5.80;3.22;;;23.50;85.70;;;;;;5011046;28;20228;-41
2022/06/17 00:08:45;;;;;;;3.63;2.80;;;23.50;85.80;;;;;;5037873;28;20211;-38
2022/06/17 00:11:34;;;;;;;3.00;2.80;;;23.40;85.90;;;;;;5017769;28;20307;-39
2022/06/17 00:14:05;;;;;;;3.38;2.90;;;23.40;86.30;;;;;;5026711;28;20221;-39
2022/06/17 00:16:33;;;;;;;5.63;3.00;;;23.40;86.00;;;;;;5024651;28;20197;-38
2022/06/17 00:19:03;;;;;;;3.60;3.30;;;23.30;85.90;;;;;;5021804;28;20217;-39
2022/06/17 00:21:52;;;;;;;3.13;2.80;;;23.30;85.90;;;;;;5027437;28;20207;-39
2022/06/17 00:24:24;;;;;;;5.28;3.25;;;23.30;86.60;;;;;;5026505;28;20319;-39
2022/06/17 00:26:54;;;;;;;3.40;2.80;;;23.30;86.40;;;;;;5030327;28;20201;-39
2022/06/17 00:29:26;;;;;;;4.30;3.20;;;23.20;86.10;;;;;;5027253;28;20263;-39
2022/06/17 00:31:53;;;;;;;4.38;3.00;;;23.20;86.30;;;;;;5028961;28;20619;-39
2022/06/17 00:34:23;;;;;;;3.35;3.05;;;23.20;86.40;;;;;;5028141;28;20633;-39
2022/06/17 00:36:57;;;;;;;4.65;3.17;;;23.20;86.50;;;;;;5020558;28;20193;-39
2022/06/17 00:39:31;;;;;;;3.58;3.10;;;23.10;86.60;;;;;;5031903;28;20228;-39
2022/06/17 00:42:08;;;;;;;5.35;3.40;;;23.10;86.80;;;;;;5030898;28;20615;-39
2022/06/17 00:45:00;;;;;;;4.70;3.17;;;23.10;87.20;;;;;;5019249;28;20232;-39
2022/06/17 00:47:44;;;;;;;3.33;2.90;;;23.00;87.00;;;;;;5014921;28;20231;-39
2022/06/17 00:50:28;;;;;;;3.72;3.30;;;23.00;87.20;;;;;;5030964;28;20241;-39
2022/06/17 00:53:17;;;;;;;3.97;3.00;;;22.90;87.00;;;;;;5031544;28;20590;-39
2022/06/17 00:55:51;;;;;;;4.65;3.08;;;22.90;87.50;;;;;;5028316;28;20213;-39
2022/06/17 00:58:26;;;;;;;3.65;2.60;;;22.80;88.00;;;;;;5025651;28;20233;-39
2022/06/17 01:00:57;;;;;;;4.50;3.15;;;22.80;87.10;;;;;;5029417;28;20692;-38
2022/06/17 01:03:33;;;;;;;5.32;3.00;;;22.70;87.20;;;;;;5028236;28;20209;-38
2022/06/17 01:06:19;;;;;;;4.28;3.13;;;22.70;87.60;;;;;;5011818;28;20209;-39
2022/06/17 01:11:46;;;;;;;4.40;3.33;;;22.60;87.40;;;;;;5029680;28;20272;-39
2022/06/17 01:14:18;;;;;;;4.28;3.10;;;22.60;87.40;;;;;;5026474;28;20655;-39
2022/06/17 01:16:49;;;;;;;3.20;2.88;;;22.50;87.50;;;;;;5028422;28;20667;-39
2022/06/17 01:19:41;;;;;;;5.32;3.00;;;22.50;87.60;;;;;;5030336;28;20213;-42
2022/06/17 01:22:27;;;;;;;4.95;3.22;;;22.50;88.30;;;;;;5024983;28;20255;-39
2022/06/17 01:25:03;;;;;;;6.28;3.40;;;22.40;87.90;;;;;;5026990;28;20259;-39
2022/06/17 01:27:53;;;;;;;5.72;3.58;;;22.30;88.00;;;;;;5027139;28;20272;-39
2022/06/17 01:30:27;;;;;;;3.47;3.10;;;22.30;88.10;;;;;;5026853;28;20201;-39
2022/06/17 01:33:02;;;;;;;5.38;3.75;;;22.20;88.00;;;;;;5026910;28;20232;-38
2022/06/17 01:35:36;;;;;;;4.88;3.20;;;22.20;88.10;;;;;;5026763;28;20282;-38
2022/06/17 01:38:08;;;;;;;4.07;3.40;;;22.20;88.50;;;;;;5029938;28;20263;-38
2022/06/17 01:40:40;;;;;;;3.70;3.40;;;22.20;88.10;;;;;;5027576;28;20232;-38
2022/06/17 01:43:11;;;;;;;3.95;3.30;;;22.10;88.20;;;;;;5010442;28;20773;-39
2022/06/17 01:45:45;;;;;;;5.00;3.60;;;22.10;88.50;;;;;;5024263;28;20288;-38
2022/06/17 01:48:17;;;;;;;3.83;3.15;;;22.00;88.50;;;;;;5026960;28;20245;-39
2022/06/17 01:50:51;;;;;;;4.68;3.20;;;22.00;88.40;;;;;;5027187;28;20647;-38
2022/06/17 01:53:27;;;;;;;3.53;3.05;;;22.00;88.70;;;;;;5024129;28;20254;-38
2022/06/17 01:56:05;;;;;;;4.68;3.40;;;21.90;88.60;;;;;;5027452;28;20206;-38
2022/06/17 01:58:43;;;;;;;6.97;3.33;;;21.90;88.90;;;;;;5028706;28;20270;-39
2022/06/17 02:01:17;;;;;;;4.63;3.80;;;21.90;89.10;;;;;;5029377;28;20836;-39
2022/06/17 02:03:58;;;;;;;6.05;3.47;;;21.80;88.80;;;;;;5017312;28;20205;-38
2022/06/17 02:06:46;;;;;;;6.53;3.90;;;21.80;89.40;;;;;;5055018;28;21047;-39
2022/06/17 02:09:14;;;;;;;4.07;3.30;;;21.70;89.20;;;;;;5029197;28;20204;-39
2022/06/17 02:11:45;;;;;;;5.20;3.28;;;21.70;88.70;;;;;;5020950;28;20656;-39
2022/06/17 02:14:12;;;;;;;5.05;3.42;;;21.70;88.80;;;;;;5026105;28;20320;-38
2022/06/17 02:16:43;;;;;;;4.32;3.40;;;21.70;88.80;;;;;;5027198;28;20219;-38
2022/06/17 02:19:12;;;;;;;3.80;3.38;;;21.60;88.80;;;;;;5029659;28;20257;-39
2022/06/17 02:21:48;;;;;;;5.60;3.60;;;21.60;88.80;;;;;;5022902;28;20196;-38
2022/06/17 02:24:17;;;;;;;3.92;3.63;;;21.50;89.20;;;;;;5021444;28;20496;-38
2022/06/17 02:26:48;;;;;;;5.82;3.50;;;21.50;88.90;;;;;;5028067;28;20760;-37
2022/06/17 02:29:23;;;;;;;5.13;3.70;;;21.50;89.40;;;;;;5027481;28;20679;-38
2022/06/17 02:31:54;;;;;;;4.07;3.28;;;21.40;89.30;;;;;;5024988;28;20212;-37
2022/06/17 02:34:23;;;;;;;4.20;3.50;;;21.40;89.50;;;;;;5030783;28;20236;-38
2022/06/17 02:37:01;;;;;;;4.18;3.60;;;21.40;89.40;;;;;;5028319;28;20763;-38
2022/06/17 02:39:31;;;;;;;4.18;3.47;;;21.30;89.60;;;;;;5028583;28;20205;-39
2022/06/17 02:42:02;;;;;;;5.32;3.40;;;21.30;89.40;;;;;;5027459;28;20829;-38
2022/06/17 02:44:35;;;;;;;6.95;3.45;;;21.30;89.60;;;;;;5028339;28;20297;-40
2022/06/17 02:47:05;;;;;;;4.32;3.40;;;21.30;89.50;;;;;;5028723;28;20240;-38
2022/06/17 02:49:35;;;;;;;4.68;3.63;;;21.30;89.40;;;;;;5027473;28;20209;-38
2022/06/17 02:52:12;;;;;;;4.82;3.55;;;21.20;89.30;;;;;;5023759;28;20283;-38
2022/06/17 02:54:43;;;;;;;4.95;3.03;;;21.20;89.80;;;;;;5026808;28;20359;-38
2022/06/17 02:57:26;;;;;;;4.82;3.38;;;21.20;89.60;;;;;;5027701;28;20781;-38
2022/06/17 03:00:02;;;;;;;4.28;3.50;;;21.20;89.90;;;;;;5028637;28;20288;-43
2022/06/17 03:02:38;;;;;;;5.18;3.65;;;21.10;89.90;;;;;;5022730;28;20293;-42
2022/06/17 03:05:24;;;;;;;4.55;3.53;;;21.10;89.90;;;;;;5017689;28;20316;-46
2022/06/17 03:07:53;;;;;;;5.85;3.50;;;21.10;90.00;;;;;;5025443;28;20213;-42
2022/06/17 03:10:29;;;;;;;4.20;3.50;;;21.10;89.80;;;;;;5026297;28;20204;-43
2022/06/17 03:13:05;;;;;;;4.05;3.50;;;21.10;90.00;;;;;;5024516;28;20227;-43
2022/06/17 03:15:35;;;;;;;5.43;3.97;;;21.10;89.90;;;;;;5026462;28;20220;-45
2022/06/17 03:18:05;;;;;;;3.95;3.15;;;21.10;90.00;;;;;;5027369;28;20209;-43
2022/06/17 03:20:37;;;;;;;3.42;3.13;;;21.00;90.00;;;;;;5026840;28;20608;-44
2022/06/17 03:23:15;;;;;;;3.90;3.20;;;21.00;90.00;;;;;;5025098;28;20304;-44
2022/06/17 03:25:52;;;;;;;3.63;3.25;;;21.00;90.00;;;;;;5027444;28;20286;-45
2022/06/17 03:28:29;;;;;;;4.25;3.03;;;21.00;90.00;;;;;;5027007;28;20213;-44
2022/06/17 03:31:06;;;;;;;4.57;3.47;;;21.00;90.10;;;;;;5025280;28;20213;-43
2022/06/17 03:33:49;;;;;;;5.28;3.60;;;21.00;90.10;;;;;;5013919;28;20201;-43
2022/06/17 03:36:30;;;;;;;6.32;3.88;;;21.00;90.10;;;;;;5041821;28;20205;-43
2022/06/17 03:39:03;;;;;;;3.63;3.33;;;21.00;90.20;;;;;;5008011;28;20217;-44
2022/06/17 03:41:53;;;;;;;4.65;3.60;;;21.00;90.10;;;;;;5022902;28;20265;-47
2022/06/17 03:44:26;;;;;;;7.25;4.00;;;21.00;90.20;;;;;;5026143;28;20723;-43
2022/06/17 03:47:05;;;;;;;7.35;3.63;;;21.00;90.50;;;;;;5024598;28;20473;-41
2022/06/17 03:49:41;;;;;;;4.20;3.78;;;20.90;90.20;;;;;;5026799;28;20201;-43
2022/06/17 03:52:20;;;;;;;5.50;3.63;;;20.90;90.30;;;;;;5024689;28;20197;-43
2022/06/17 03:54:48;;;;;;;5.38;3.80;;;21.00;90.30;;;;;;5012482;28;20315;-43
2022/06/17 03:57:16;;;;;;;4.00;3.33;;;20.90;90.20;;;;;;5025835;28;20233;-43
2022/06/17 03:59:47;;;;;;;3.92;3.30;;;21.00;90.30;;;;;;5028506;28;20634;-41
2022/06/17 04:02:18;;;;;;;5.13;3.42;;;20.90;90.30;;;;;;5018697;28;20197;-44
2022/06/17 04:04:50;;;;;;;5.00;3.40;;;21.00;90.40;;;;;;5029146;28;20193;-44
2022/06/17 04:07:20;;;;;;;4.38;3.78;;;21.00;90.40;;;;;;5031953;28;20526;-41
2022/06/17 04:09:51;;;;;;;11.98;4.60;;;20.90;90.40;;;;;;5033310;28;20207;-42
2022/06/17 04:12:24;;;;;;;6.40;4.07;;;21.00;90.50;;;;;;5031687;28;20297;-41
2022/06/17 04:15:29;;;;;;;4.30;3.40;;;21.00;90.50;;;;;;5034956;28;20263;-43
2022/06/17 04:17:56;;;;;;;5.07;3.85;;;21.00;90.70;;;;;;5033022;28;20207;-44
2022/06/17 04:20:28;;;;;;;7.70;3.60;;;21.00;90.50;;;;;;5034877;28;20304;-45
2022/06/17 04:23:02;;;;;;;5.43;3.30;;;21.00;90.60;;;;;;5032478;28;20609;-41
2022/06/17 04:25:52;;;;;;;7.65;3.78;;;21.00;90.70;;;;;;5033794;28;20283;-41
2022/06/17 04:28:23;;;;;;;6.18;3.88;;;21.00;90.80;;;;;;5033701;28;20212;-42
2022/06/17 04:30:56;;;;;;;5.30;3.55;;;21.00;90.80;;;;;;5032266;28;20217;-42
2022/06/17 04:33:50;;;;;;;10.40;3.90;;;21.00;90.80;;;;;;5030837;28;20580;-41
2022/06/17 04:36:31;;;;;;;7.97;4.07;;;21.10;91.00;;;;;;5033817;28;20482;-43
2022/06/17 04:39:06;;;;;;;12.90;4.00;;;21.10;90.80;;;;;;5034561;28;20231;-43
2022/06/17 04:41:37;;;;;;;10.25;3.60;;;21.10;90.90;;;;;;5033577;28;20254;-42
2022/06/17 04:44:06;;;;;;;7.53;3.88;;;21.10;90.90;;;;;;5034927;28;20805;-43
2022/06/17 04:46:44;;;;;;;4.78;3.60;;;21.10;90.80;;;;;;5032617;28;20215;-44
2022/06/17 04:49:19;;;;;;;4.68;3.50;;;21.10;90.90;;;;;;5034168;28;20211;-44
2022/06/17 04:51:47;;;;;;;9.15;4.00;;;21.20;90.80;;;;;;5030902;28;20232;-43
2022/06/17 04:54:15;;;;;;;10.48;3.30;;;21.20;90.80;;;;;;5035435;28;20691;-44
2022/06/17 04:56:46;;;;;;;5.53;3.53;;;21.20;90.70;;;;;;5027753;28;20267;-38
2022/06/17 04:59:31;;;;;;;8.15;3.50;;;21.30;90.80;;;;;;5026063;28;20204;-39
2022/06/17 05:02:14;;;;;;;4.70;3.03;;;21.30;90.80;;;;;;5022768;28;20217;-38
2022/06/17 05:04:48;;;;;;;7.25;3.15;;;21.30;90.70;;;;;;5027453;28;20239;-38
2022/06/17 05:07:19;;;;;;;4.20;3.00;;;21.40;90.70;;;;;;5022251;28;20676;-38
2022/06/17 05:10:18;;;;;;;6.03;3.10;;;21.50;90.80;;;;;;5019662;28;20209;-38
2022/06/17 05:12:52;;;;;;;6.13;3.42;;;21.50;90.80;;;;;;5024361;28;20205;-40
2022/06/17 05:15:21;;;;;;;6.93;3.47;;;21.50;90.80;;;;;;5028989;28;20258;-37
2022/06/17 05:17:49;;;;;;;7.72;3.33;;;21.60;90.80;;;;;;5028857;28;20198;-38
2022/06/17 05:20:20;;;;;;;5.85;3.28;;;21.60;90.80;;;;;;5027311;28;20201;-38
2022/06/17 05:22:55;;;;;;;4.43;3.20;;;21.70;90.90;;;;;;5042161;28;20216;-38
2022/06/17 05:25:26;;;;;;;4.53;2.85;;;21.80;91.00;;;;;;5029133;28;20210;-37
2022/06/17 05:27:53;;;;;;;5.82;3.03;;;21.80;91.00;;;;;;5027789;28;20306;-38
2022/06/17 05:30:21;;;;;;;7.25;3.55;;;21.90;91.10;;;;;;5026143;28;20328;-38
2022/06/17 05:32:53;;;;;;;5.20;2.70;;;22.00;91.10;;;;;;5028737;28;20236;-39
2022/06/17 05:35:26;;;;;;;4.30;2.65;;;22.10;91.10;;;;;;5027533;28;20225;-38
2022/06/17 05:37:53;;;;;;;6.38;3.08;;;22.10;91.10;;;;;;5016805;28;20275;-38
2022/06/17 05:40:21;;;;;;;5.20;2.80;;;22.20;91.10;;;;;;5026189;28;20316;-38
2022/06/17 05:42:53;;;;;;;4.13;2.80;;;22.30;91.20;;;;;;5027108;28;20201;-38
2022/06/17 05:45:24;;;;;;;3.97;2.85;;;22.30;91.20;;;;;;5028343;28;20212;-38
2022/06/17 05:47:52;;;;;;;6.53;2.90;;;22.40;91.20;;;;;;5021237;28;20197;-38
2022/06/17 05:50:25;;;;;;;6.63;3.05;;;22.40;91.20;;;;;;5021847;28;20217;-38
2022/06/17 05:52:58;;;;;;;6.38;2.95;;;22.50;91.30;;;;;;5028806;28;20205;-38
2022/06/17 05:55:28;;;;;;;5.03;3.03;;;22.60;91.40;;;;;;5026974;28;20319;-38
2022/06/17 05:57:56;;;;;;;5.38;2.85;;;22.60;91.40;;;;;;5027225;28;20228;-38
2022/06/17 06:00:30;;;;;;;8.00;3.17;;;22.70;91.40;;;;;;5056362;28;20362;-38
2022/06/17 06:03:00;;;;;;;3.50;2.40;;;22.80;91.40;;;;;;5020652;28;20212;-38
2022/06/17 06:05:31;;;;;;;5.80;2.65;;;22.90;91.50;;;;;;5021304;28;20212;-38
2022/06/17 06:07:59;;;;;;;5.22;2.70;;;23.00;91.50;;;;;;5024568;28;20200;-38
2022/06/17 06:10:33;;;;;;;6.10;3.40;;;23.10;91.60;;;;;;5028646;28;20205;-37
2022/06/17 06:13:04;;;;;;;6.07;3.10;;;23.20;91.70;;;;;;5027152;28;20560;-38
2022/06/17 06:15:42;;;;;;;6.72;2.85;;;23.30;91.70;;;;;;5024542;28;20286;-38
2022/06/17 06:18:17;;;;;;;5.68;2.55;;;23.40;91.70;;;;;;5025979;28;20611;-36
2022/06/17 06:20:48;;;;;;;4.70;2.72;;;23.50;91.80;;;;;;5026900;28;20236;-37
2022/06/17 06:23:21;;;;;;;5.38;2.85;;;23.50;91.80;;;;;;5017538;28;20311;-38
2022/06/17 06:25:51;;;;;;;6.28;2.55;;;23.60;91.80;;;;;;5023185;28;20223;-37
2022/06/17 06:28:24;;;;;;;6.03;2.50;;;23.70;91.90;;;;;;5026261;28;20224;-36
2022/06/17 06:31:04;;;;;;;5.38;2.60;;;23.80;91.90;;;;;;5020351;28;20205;-37
2022/06/17 06:33:33;;;;;;;5.70;2.80;;;23.90;92.00;;;;;;5025725;28;20307;-38
2022/06/17 06:36:04;;;;;;;4.32;2.40;;;24.00;91.90;;;;;;5022633;28;20324;-37
2022/06/17 06:38:34;;;;;;;3.33;2.40;;;24.00;91.90;;;;;;5054938;28;20205;-37
2022/06/17 06:41:02;;;;;;;3.25;2.13;;;24.00;91.80;;;;;;5024676;28;20213;-37
2022/06/17 06:43:30;;;;;;;5.10;2.47;;;24.10;91.80;;;;;;5026505;28;20204;-37
2022/06/17 06:46:11;;;;;;;3.58;2.05;;;24.10;91.80;;;;;;5022580;28;20292;-37
2022/06/17 06:48:43;;;;;;;3.83;2.25;;;24.10;91.70;;;;;;5030035;28;20211;-38
2022/06/17 06:51:10;;;;;;;5.25;2.80;;;24.10;91.70;;;;;;5022408;28;20243;-38
2022/06/17 06:53:40;;;;;;;4.82;2.45;;;24.20;91.80;;;;;;5023825;28;20208;-38
2022/06/17 06:56:10;;;;;;;4.15;2.10;;;24.20;91.70;;;;;;5025839;28;20689;-38
2022/06/17 06:58:42;;;;;;;2.90;2.20;;;24.20;91.70;;;;;;5023523;28;20228;-38
2022/06/17 07:01:10;;;;;;;6.78;2.00;;;24.30;91.80;;;;;;5063964;28;20253;-38
2022/06/17 07:03:40;;;;;;;2.80;2.25;;;24.30;91.70;;;;;;5036854;28;20210;-38
2022/06/17 07:06:12;;;;;;;5.22;2.03;;;24.30;91.70;;;;;;5025549;28;20212;-38
2022/06/17 07:08:42;;;;;;;4.28;2.30;;;24.40;91.70;;;;;;5025585;28;20714;-38
2022/06/17 07:11:09;;;;;;;9.60;2.25;;;24.40;91.70;;;;;;5023393;28;20216;-38
2022/06/17 07:13:44;;;;;;;4.40;1.95;;;24.50;91.80;;;;;;5024530;28;20565;-38
2022/06/17 07:16:12;;;;;;;3.58;1.90;;;24.50;91.80;;;;;;5025180;28;20239;-38
2022/06/17 07:18:41;;;;;;;2.85;1.73;;;24.60;91.90;;;;;;5027082;28;20213;-38
2022/06/17 07:21:12;;;;;;;3.22;1.88;;;24.60;91.80;;;;;;5056514;28;20585;-38
2022/06/17 07:23:43;;;;;;;4.05;2.20;;;24.70;91.90;;;;;;5024913;28;20686;-37
2022/06/17 07:26:22;;;;;;;3.97;2.10;;;24.70;91.80;;;;;;5025882;28;20223;-37
2022/06/17 07:28:54;;;;;;;3.17;2.10;;;24.80;91.80;;;;;;5025942;28;20201;-38
2022/06/17 07:31:22;;;;;;;5.00;2.10;;;24.80;91.80;;;;;;5028713;28;20209;-38
2022/06/17 07:33:52;;;;;;;3.85;2.17;;;24.80;91.80;;;;;;5024071;28;20209;-38
2022/06/17 07:42:05;;;;;;;4.68;1.90;;;24.90;91.80;;;;;;5025720;28;20225;-37
2022/06/17 07:44:36;;;;;;;3.58;2.05;;;24.90;91.80;;;;;;5024197;28;20216;-38
2022/06/17 07:47:12;;;;;;;4.43;2.25;;;24.90;91.80;;;;;;5017706;28;20263;-38
2022/06/17 07:49:42;;;;;;;3.50;2.10;;;24.90;91.80;;;;;;5056096;28;20533;-38
2022/06/17 07:52:10;;;;;;;3.45;1.90;;;25.00;91.80;;;;;;5023989;28;20263;-37
2022/06/17 07:54:38;;;;;;;6.10;2.20;;;25.00;91.80;;;;;;5024437;28;20598;-37
2022/06/17 07:57:06;;;;;;;5.25;2.20;;;25.00;91.80;;;;;;5019671;28;20632;-43
2022/06/17 07:59:37;;;;;;;2.85;1.70;;;25.00;91.80;;;;;;5055131;28;20255;-41
2022/06/17 08:02:05;;;;;;;5.45;1.80;;;25.10;91.80;;;;;;5029720;28;20235;-42
2022/06/17 08:04:34;;;;;;;5.38;1.80;;;25.10;91.80;;;;;;5022172;28;20319;-43
2022/06/17 08:07:03;;;;;;;3.47;2.00;;;25.20;91.80;;;;;;5021309;28;20309;-43
2022/06/17 08:09:31;;;;;;;2.30;1.95;;;25.20;91.80;;;;;;5030321;28;20205;-43
2022/06/17 08:11:58;;;;;;;2.50;1.40;;;25.20;91.80;;;;;;5026322;28;20232;-43
2022/06/17 08:14:26;;;;;;;4.22;1.90;;;25.30;91.70;;;;;;5026408;28;20303;-43
2022/06/17 08:16:53;;;;;;;10.30;3.00;;;25.30;91.70;;;;;;5024367;28;20734;-43
2022/06/17 08:19:20;;;;;;;7.55;2.78;;;25.30;91.70;;;;;;5025690;28;20197;-43
2022/06/17 08:21:52;;;;;;;9.82;2.78;;;25.40;91.80;;;;;;5025015;28;20292;-43
2022/06/17 08:24:25;;;;;;;8.95;2.60;;;25.40;91.80;;;;;;5039144;28;20197;-43
2022/06/17 08:26:52;;;;;;;6.03;1.98;;;25.50;91.80;;;;;;5028581;28;20244;-43
2022/06/17 08:29:20;;;;;;;5.25;2.00;;;25.50;91.80;;;;;;5025918;28;20605;-44
2022/06/17 08:34:58;;;;;;;4.22;2.28;;;25.60;91.80;;;;;;5006921;28;20213;-43
2022/06/17 08:37:28;;;;;;;3.95;2.10;;;25.70;91.70;;;;;;5022688;28;20783;-43
2022/06/17 08:39:56;;;;;;;2.88;1.90;;;25.70;91.80;;;;;;5016372;28;20200;-44
2022/06/17 08:42:57;;;;;;;2.45;1.63;;;25.70;91.80;;;;;;5021900;28;20209;-43
2022/06/17 08:45:41;;;;;;;5.50;1.50;;;25.80;91.80;;;;;;5024000;28;20197;-44
2022/06/17 08:48:27;;;;;;;5.50;2.03;;;25.90;91.80;;;;;;5010789;28;20587;-43
2022/06/17 08:51:12;;;;;;;5.85;2.20;;;25.90;91.80;;;;;;5025413;28;20719;-43
2022/06/17 08:54:14;;;;;;;2.92;1.73;;;25.90;91.80;;;;;;5012010;28;20213;-43
2022/06/17 08:57:11;;;;;;;3.80;1.77;;;26.00;91.80;;;;;;5024797;28;20264;-42
2022/06/17 08:59:56;;;;;;;2.60;1.70;;;26.10;91.80;;;;;;5024830;28;20220;-44
2022/06/17 09:02:38;;;;;;;3.30;1.80;;;26.10;91.80;;;;;;5027612;28;20263;-44
2022/06/17 09:05:29;;;;;;;4.07;1.75;;;26.10;91.80;;;;;;5016969;28;20205;-43
2022/06/17 09:08:26;;;;;;;2.65;2.20;;;26.20;91.80;;;;;;5025896;28;20208;-44
2022/06/17 09:11:14;;;;;;;2.22;1.65;;;26.20;91.80;;;;;;5025405;28;20753;-43
2022/06/17 09:14:10;;;;;;;1.95;1.80;;;26.20;91.80;;;;;;5025683;28;20221;-43
2022/06/17 09:16:50;;;;;;;3.38;1.63;;;26.30;91.80;;;;;;5027368;28;20383;-42
2022/06/17 09:19:26;;;;;;;5.15;1.92;;;26.30;91.80;;;;;;5028236;28;20205;-43
2022/06/17 09:22:09;;;;;;;8.23;2.40;;;26.40;91.80;;;;;;5026240;28;20193;-43
2022/06/17 09:24:43;;;;;;;5.78;2.40;;;26.40;91.60;;;;;;5026821;28;20303;-43
2022/06/17 09:27:19;;;;;;;6.38;2.25;;;26.50;91.70;;;;;;5028307;28;20327;-42
2022/06/17 09:29:55;;;;;;;7.82;2.10;;;26.50;91.60;;;;;;5025811;28;20243;-43
2022/06/17 09:32:43;;;;;;;3.30;1.50;;;26.50;91.60;;;;;;5039555;28;20723;-43
2022/06/17 09:35:29;;;;;;;3.88;1.80;;;26.60;91.60;;;;;;5026182;28;20228;-38
2022/06/17 09:38:12;;;;;;;4.82;1.80;;;26.60;91.60;;;;;;5025377;28;20201;-38
2022/06/17 09:40:45;;;;;;;4.55;1.75;;;26.60;91.50;;;;;;5024718;28;20615;-39
2022/06/17 09:43:15;;;;;;;5.60;2.60;;;26.70;91.40;;;;;;5026594;28;20616;-43
2022/06/17 09:46:13;;;;;;;6.22;2.60;;;26.70;91.50;;;;;;5027553;28;20304;-44
2022/06/17 09:48:44;;;;;;;4.82;1.80;;;26.70;91.40;;;;;;5014809;28;20205;-42
2022/06/17 09:51:31;;;;;;;2.75;1.65;;;26.70;91.20;;;;;;5027370;28;20217;-43
2022/06/17 09:54:23;;;;;;;4.70;2.35;;;26.80;91.30;;;;;;5027758;28;20615;-44
2022/06/17 09:57:03;;;;;;;4.25;1.90;;;26.80;91.30;;;;;;5057306;28;20498;-43
2022/06/17 09:59:59;;;;;;;7.15;2.03;;;26.80;91.30;;;;;;5026941;28;20379;-43
2022/06/17 10:02:47;;;;;;;2.58;1.60;;;26.80;91.40;;;;;;5020549;28;20217;-43
2022/06/17 10:05:27;;;;;;;10.55;2.75;;;26.90;91.50;;;;;;5025340;28;20619;-44
2022/06/17 10:08:14;;;;;;;4.65;1.83;;;26.90;91.40;;;;;;5023400;28;20235;-43
2022/06/17 10:10:55;;;;;;;8.55;2.35;;;27.00;91.40;;;;;;5028256;28;20208;-43
2022/06/17 10:13:31;;;;;;;6.70;1.67;;;27.00;91.40;;;;;;5026767;28;20286;-43
2022/06/17 10:19:34;;;;;;;4.40;1.83;;;27.20;91.40;;;;;;5027063;28;20219;-44
2022/06/17 10:22:20;;;;;;;2.63;1.73;;;27.20;91.40;;;;;;5023328;28;20264;-44
2022/06/17 10:25:06;;;;;;;5.07;2.20;;;27.30;91.50;;;;;;5025265;28;20267;-44
2022/06/17 10:27:54;;;;;;;4.05;1.88;;;27.30;91.50;;;;;;5024658;28;20213;-44
2022/06/17 10:30:41;;;;;;;5.43;1.90;;;27.40;91.40;;;;;;5056784;28;20220;-42
2022/06/17 10:33:14;;;;;;;2.88;1.77;;;27.40;91.30;;;;;;5019256;28;20208;-44
2022/06/17 10:35:51;;;;;;;7.13;2.00;;;27.50;91.30;;;;;;5019091;28;20220;-43
2022/06/17 10:38:28;;;;;;;6.18;2.42;;;27.50;91.30;;;;;;5020306;28;20196;-43
2022/06/17 10:40:58;;;;;;;6.45;2.22;;;27.60;91.30;;;;;;5017785;28;20219;-44
2022/06/17 10:43:42;;;;;;;3.38;1.60;;;27.60;91.30;;;;;;5024904;28;20231;-42
2022/06/17 10:46:14;;;;;;;3.45;1.80;;;27.70;91.30;;;;;;5026048;28;20250;-42
2022/06/17 10:48:52;;;;;;;3.05;1.70;;;27.80;91.20;;;;;;5022471;28;20219;-44
2022/06/17 10:51:20;;;;;;;7.88;2.00;;;27.80;91.30;;;;;;5021571;28;20310;-44
2022/06/17 10:53:52;;;;;;;5.75;2.03;;;27.80;91.30;;;;;;5019038;28;20216;-43
2022/06/17 10:56:41;;;;;;;8.35;2.25;;;27.90;91.30;;;;;;5023332;28;20220;-44
2022/06/17 10:59:11;;;;;;;3.75;2.00;;;27.90;91.30;;;;;;5019871;28;20213;-43
2022/06/17 11:01:47;;;;;;;3.33;1.92;;;28.00;91.40;;;;;;5031071;28;20278;-43
2022/06/17 11:04:25;;;;;;;4.00;2.33;;;28.10;91.50;;;;;;5036239;28;20224;-44
2022/06/17 11:07:05;;;;;;;5.32;2.47;;;28.10;91.40;;;;;;5023707;28;20208;-41
2022/06/17 11:09:47;;;;;;;4.70;2.17;;;28.20;91.30;;;;;;5024479;28;20209;-42
2022/06/17 11:12:21;;;;;;;5.47;2.30;;;28.30;91.30;;;;;;5024746;28;20244;-41
2022/06/17 11:15:00;;;;;;;9.77;3.33;;;28.30;91.40;;;;;;5025555;28;20295;-41
2022/06/17 11:17:44;;;;;;;4.53;2.05;;;28.30;91.20;;;;;;5037872;28;21048;-41
2022/06/17 11:20:15;;;;;;;5.43;2.20;;;28.40;91.30;;;;;;5031230;28;20212;-41
2022/06/17 11:23:20;;;;;;;4.15;2.42;;;28.40;91.20;;;;;;5019662;28;20219;-41
2022/06/17 11:26:06;;;;;;;5.40;2.10;;;28.50;91.00;;;;;;5023794;28;20673;-41
2022/06/17 11:28:37;;;;;;;8.27;2.40;;;28.50;91.20;;;;;;5026316;28;20197;-41
2022/06/17 11:31:15;;;;;;;5.38;2.38;;;28.60;90.90;;;;;;5017621;28;20316;-40
2022/06/17 11:33:52;;;;;;;5.82;2.10;;;28.60;90.90;;;;;;5017607;28;20193;-42
2022/06/17 11:36:19;;;;;;;6.57;2.20;;;28.70;91.10;;;;;;5023977;28;20267;-42
2022/06/17 11:38:49;;;;;;;3.00;2.00;;;28.70;91.10;;;;;;5021638;28;20207;-41
2022/06/17 11:41:30;;;;;;;3.70;1.80;;;28.80;91.10;;;;;;5023339;28;20303;-40
2022/06/17 11:44:20;;;;;;;7.38;2.38;;;28.80;91.00;;;;;;5024750;28;20205;-43
2022/06/17 11:46:49;;;;;;;3.15;1.80;;;28.90;91.00;;;;;;5024706;28;20266;-43
2022/06/17 11:49:20;;;;;;;1.80;1.60;;;28.90;90.90;;;;;;5045985;28;20216;-43
2022/06/17 11:52:00;;;;;;;2.92;1.50;;;28.90;91.00;;;;;;5013583;28;20418;-43
2022/06/17 11:54:57;;;;;;;6.00;1.52;;;29.00;91.00;;;;;;5021855;28;20254;-43
2022/06/17 11:57:39;;;;;;;6.40;1.65;;;29.10;90.90;;;;;;5016605;28;20241;-41
2022/06/17 12:00:18;;;;;;;2.38;1.65;;;29.10;90.50;;;;;;5025927;28;20292;-42
2022/06/17 12:02:59;;;;;;;3.40;1.52;;;29.10;90.60;;;;;;5027787;28;20205;-43
2022/06/17 12:05:36;;;;;;;3.92;1.65;;;29.10;90.50;;;;;;5016149;28;20243;-43
2022/06/17 12:08:26;;;;;;;2.92;1.50;;;29.20;90.80;;;;;;5010138;28;20206;-42
2022/06/17 12:11:10;;;;;;;12.77;3.22;;;29.20;91.00;;;;;;5016040;28;20201;-43
2022/06/17 12:13:51;;;;;;;4.20;1.63;;;29.30;90.60;;;;;;5023935;28;20543;-42
2022/06/17 12:16:25;;;;;;;6.32;2.08;;;29.30;90.70;;;;;;5022783;28;20298;-42
2022/06/17 12:18:55;;;;;;;4.05;1.42;;;29.40;90.70;;;;;;5021059;28;20339;-43
2022/06/17 12:21:24;;;;;;;2.65;1.30;;;29.40;90.70;;;;;;5022243;28;20201;-43
2022/06/17 12:23:58;;;;;;;2.65;1.45;;;29.50;90.70;;;;;;5023479;28;20286;-43
2022/06/17 12:27:02;;;;;;;7.13;2.05;;;29.50;90.60;;;;;;5023123;28;20932;-42
2022/06/17 12:29:39;;;;;;;6.55;1.65;;;29.60;90.40;;;;;;5018288;28;20296;-42
2022/06/17 12:32:37;;;;;;;4.30;1.88;;;29.70;90.60;;;;;;5019584;28;20217;-43
2022/06/17 12:35:30;;;;;;;5.80;2.00;;;29.70;90.70;;;;;;5021794;28;20227;-41
2022/06/17 12:38:05;;;;;;;4.47;1.90;;;29.80;90.60;;;;;;5020738;28;20323;-42
2022/06/17 12:40:53;;;;;;;3.88;1.40;;;29.80;90.70;;;;;;5033353;28;20594;-42
2022/06/17 12:43:33;;;;;;;4.13;1.60;;;30.00;90.90;;;;;;5021424;28;20419;-41
2022/06/17 12:46:10;;;;;;;5.63;1.60;;;30.00;90.80;;;;;;5026237;28;20224;-42
2022/06/17 12:48:49;;;;;;;8.15;1.92;;;30.00;90.60;;;;;;5024382;28;20239;-42
2022/06/17 12:54:21;;;;;;;2.60;1.40;;;30.20;90.40;;;;;;5028594;28;20600;-42
2022/06/17 12:57:04;;;;;;;2.47;1.50;;;30.30;90.70;;;;;;5023983;28;20290;-41
2022/06/17 12:59:49;;;;;;;12.10;3.08;;;30.30;90.80;;;;;;5022536;28;20287;-42
2022/06/17 13:02:37;;;;;;;6.78;2.10;;;30.30;90.20;;;;;;5026375;28;20197;-42
2022/06/17 13:05:15;;;;;;;5.82;1.63;;;30.40;90.50;;;;;;5025080;28;20251;-42
2022/06/17 13:08:02;;;;;;;1.25;1.00;;;30.50;90.30;;;;;;5026956;28;20251;-42
2022/06/17 13:11:00;;;;;;;1.77;1.17;;;30.50;90.60;;;;;;5023880;28;20212;-42
2022/06/17 13:13:37;;;;;;;4.53;1.35;;;30.60;90.60;;;;;;5016194;28;20625;-42
2022/06/17 13:16:17;;;;;;;3.25;1.50;;;30.60;90.70;;;;;;5024788;28;20205;-43
2022/06/17 13:18:52;;;;;;;7.43;2.25;;;30.70;90.80;;;;;;5027179;28;20204;-40
2022/06/17 13:21:35;;;;;;;2.45;1.20;;;30.80;90.70;;;;;;5024780;28;20748;-42
2022/06/17 13:24:14;;;;;;;2.20;1.30;;;30.90;90.50;;;;;;5027219;28;20220;-40
2022/06/17 13:26:49;;;;;;;1.17;1.05;;;30.90;90.40;;;;;;5022044;28;20300;-40
2022/06/17 13:29:25;;;;;;;3.13;1.45;;;31.00;90.30;;;;;;5025302;28;20215;-40
2022/06/17 13:32:12;;;;;;;1.65;1.00;;;31.00;90.40;;;;;;5025351;28;20212;-41
2022/06/17 13:34:53;;;;;;;4.80;1.48;;;31.10;90.40;;;;;;5027917;28;20208;-41
2022/06/17 13:37:37;;;;;;;4.85;1.30;;;31.10;90.20;;;;;;5023054;28;20335;-41
2022/06/17 13:40:16;;;;;;;2.90;1.10;;;31.20;90.50;;;;;;5025600;28;20666;-41
2022/06/17 13:42:49;;;;;;;5.93;1.40;;;31.30;90.50;;;;;;5025349;28;20665;-41
2022/06/17 13:45:32;;;;;;;2.97;1.30;;;31.30;90.50;;;;;;5027839;28;20243;-42
2022/06/17 13:48:02;;;;;;;3.50;1.15;;;31.40;90.40;;;;;;5022661;28;20687;-42
2022/06/17 13:50:50;;;;;;;1.80;1.00;;;31.40;90.50;;;;;;5026773;28;20622;-42